HCB weather

Centro Corporativo Bosques Heliport
Cuajimalpa, Distrito Federal, Mexico

Public forecast

Using degrees Celsius for public forecast. Weather courtesy of forecast.io.

METAR (pilot weather report)

Closest report is Licenciado Benito Juarez International Airport, 10.5 nm (19.5 km) ENE. Retrieved 2019/08/18 00:45 UTC (54 minutes ago):

MMMX 180045Z 08010KT 7SM SCT020CB BKN080 BKN200 19/13 A3024 NOSIG RMK 8/963 HZY

TAF (pilot weather forecast)

Forecast is more than 6 hours old.

Closest forecast is Licenciado Benito Juarez International Airport, 10.5 nm (19.5 km) ENE. Retrieved 2019/08/17 18:21 UTC (7 hours ago):

TAF MMMX 171713Z 1718/1824 06010KT P6SM BKN025 TX27/1721Z TN14/1812Z FM172200 04015KT 6SM VC TSRA BKN020CB TEMPO 1722/1802 4SM TSRA FM180200 00000KT 5SM RA BKN020 OVC080 FM180300 04010KT P6SM SCT020 BKN100 FM181500 00000KT 5SM HZ SCT020 PROB40 1820/1824 4SM TSRA BKN025CB